sensor_id;sensor_type;location;lat;lon;timestamp;temperature;humidity
52415;DHT22;38340;52.964;6.086;2024-03-25T00:00:10;5.20;99.90
52415;DHT22;38340;52.964;6.086;2024-03-25T00:02:37;5.10;99.90
52415;DHT22;38340;52.964;6.086;2024-03-25T00:05:04;5.10;99.90
52415;DHT22;38340;52.964;6.086;2024-03-25T00:07:30;5.00;99.90
52415;DHT22;38340;52.964;6.086;2024-03-25T00:09:57;5.00;99.90
52415;DHT22;38340;52.964;6.086;2024-03-25T00:12:25;5.00;99.90
52415;DHT22;38340;52.964;6.086;2024-03-25T00:14:51;5.00;99.90
52415;DHT22;38340;52.964;6.086;2024-03-25T00:17:16;5.00;99.90
52415;DHT22;38340;52.964;6.086;2024-03-25T00:19:42;5.00;99.90
52415;DHT22;38340;52.964;6.086;2024-03-25T00:22:07;5.10;99.90
52415;DHT22;38340;52.964;6.086;2024-03-25T00:24:33;5.10;99.90
52415;DHT22;38340;52.964;6.086;2024-03-25T00:26:59;5.10;99.90
52415;DHT22;38340;52.964;6.086;2024-03-25T00:29:24;5.10;99.90
52415;DHT22;38340;52.964;6.086;2024-03-25T00:31:50;5.10;99.90
52415;DHT22;38340;52.964;6.086;2024-03-25T00:34:16;5.20;99.90
52415;DHT22;38340;52.964;6.086;2024-03-25T00:36:43;5.20;99.90
52415;DHT22;38340;52.964;6.086;2024-03-25T00:39:08;5.20;99.90
52415;DHT22;38340;52.964;6.086;2024-03-25T00:41:34;5.20;99.90
52415;DHT22;38340;52.964;6.086;2024-03-25T00:43:59;5.10;99.90
52415;DHT22;38340;52.964;6.086;2024-03-25T00:46:25;5.00;99.90
52415;DHT22;38340;52.964;6.086;2024-03-25T00:48:51;4.90;99.90
52415;DHT22;38340;52.964;6.086;2024-03-25T00:51:17;4.80;99.90
52415;DHT22;38340;52.964;6.086;2024-03-25T00:53:42;4.70;99.90
52415;DHT22;38340;52.964;6.086;2024-03-25T00:56:09;4.70;99.90
52415;DHT22;38340;52.964;6.086;2024-03-25T00:58:34;4.70;99.90
52415;DHT22;38340;52.964;6.086;2024-03-25T01:01:00;4.70;99.90
52415;DHT22;38340;52.964;6.086;2024-03-25T01:03:25;4.60;99.90
52415;DHT22;38340;52.964;6.086;2024-03-25T01:05:51;4.60;99.90
52415;DHT22;38340;52.964;6.086;2024-03-25T01:08:17;4.50;99.90
52415;DHT22;38340;52.964;6.086;2024-03-25T01:10:43;4.50;99.90
52415;DHT22;38340;52.964;6.086;2024-03-25T01:13:08;4.50;99.90
52415;DHT22;38340;52.964;6.086;2024-03-25T01:15:34;4.40;99.90
52415;DHT22;38340;52.964;6.086;2024-03-25T01:18:00;4.40;99.90
52415;DHT22;38340;52.964;6.086;2024-03-25T01:20:25;4.40;99.90
52415;DHT22;38340;52.964;6.086;2024-03-25T01:22:51;4.30;99.90
52415;DHT22;38340;52.964;6.086;2024-03-25T01:25:17;4.20;99.90
52415;DHT22;38340;52.964;6.086;2024-03-25T01:27:42;4.20;99.90
52415;DHT22;38340;52.964;6.086;2024-03-25T01:30:08;4.20;99.90
52415;DHT22;38340;52.964;6.086;2024-03-25T01:32:34;4.20;99.90
52415;DHT22;38340;52.964;6.086;2024-03-25T01:34:59;4.20;99.90
52415;DHT22;38340;52.964;6.086;2024-03-25T01:37:25;4.30;99.90
52415;DHT22;38340;52.964;6.086;2024-03-25T01:39:51;4.20;99.90
52415;DHT22;38340;52.964;6.086;2024-03-25T01:42:16;4.20;99.90
52415;DHT22;38340;52.964;6.086;2024-03-25T01:44:42;4.20;99.90
52415;DHT22;38340;52.964;6.086;2024-03-25T01:47:08;4.20;99.90
52415;DHT22;38340;52.964;6.086;2024-03-25T01:49:33;4.20;99.90
52415;DHT22;38340;52.964;6.086;2024-03-25T01:51:59;4.10;99.90
52415;DHT22;38340;52.964;6.086;2024-03-25T01:54:25;4.00;99.90
52415;DHT22;38340;52.964;6.086;2024-03-25T01:56:52;3.90;99.90
52415;DHT22;38340;52.964;6.086;2024-03-25T01:59:20;3.80;99.90
52415;DHT22;38340;52.964;6.086;2024-03-25T02:01:46;3.70;99.90
52415;DHT22;38340;52.964;6.086;2024-03-25T02:04:12;3.80;99.90
52415;DHT22;38340;52.964;6.086;2024-03-25T02:06:40;3.80;99.90
52415;DHT22;38340;52.964;6.086;2024-03-25T02:09:07;3.90;99.90
52415;DHT22;38340;52.964;6.086;2024-03-25T02:11:33;4.00;99.90
52415;DHT22;38340;52.964;6.086;2024-03-25T02:13:58;4.10;99.90
52415;DHT22;38340;52.964;6.086;2024-03-25T02:16:24;4.30;99.90
52415;DHT22;38340;52.964;6.086;2024-03-25T02:18:50;4.40;99.90
52415;DHT22;38340;52.964;6.086;2024-03-25T02:21:17;4.50;99.90
52415;DHT22;38340;52.964;6.086;2024-03-25T02:23:42;4.60;99.90
52415;DHT22;38340;52.964;6.086;2024-03-25T02:26:10;4.60;99.90
52415;DHT22;38340;52.964;6.086;2024-03-25T02:28:35;4.50;99.90
52415;DHT22;38340;52.964;6.086;2024-03-25T02:31:01;4.60;99.90
52415;DHT22;38340;52.964;6.086;2024-03-25T02:33:27;4.60;99.90
52415;DHT22;38340;52.964;6.086;2024-03-25T02:35:52;4.60;99.90
52415;DHT22;38340;52.964;6.086;2024-03-25T02:38:19;4.60;99.90
52415;DHT22;38340;52.964;6.086;2024-03-25T02:40:45;4.60;99.90
52415;DHT22;38340;52.964;6.086;2024-03-25T02:43:11;4.70;99.90
52415;DHT22;38340;52.964;6.086;2024-03-25T02:45:37;4.60;99.90
52415;DHT22;38340;52.964;6.086;2024-03-25T02:48:03;4.60;99.90
52415;DHT22;38340;52.964;6.086;2024-03-25T02:50:28;4.50;99.90
52415;DHT22;38340;52.964;6.086;2024-03-25T02:52:54;4.50;99.90
52415;DHT22;38340;52.964;6.086;2024-03-25T02:55:20;4.40;99.90
52415;DHT22;38340;52.964;6.086;2024-03-25T02:57:45;4.50;99.90
52415;DHT22;38340;52.964;6.086;2024-03-25T03:00:12;4.40;99.90
52415;DHT22;38340;52.964;6.086;2024-03-25T03:02:39;4.40;99.90
52415;DHT22;38340;52.964;6.086;2024-03-25T03:05:05;4.40;99.90
52415;DHT22;38340;52.964;6.086;2024-03-25T03:07:30;4.50;99.90
52415;DHT22;38340;52.964;6.086;2024-03-25T03:09:56;4.40;99.90
52415;DHT22;38340;52.964;6.086;2024-03-25T03:12:22;4.40;99.90
52415;DHT22;38340;52.964;6.086;2024-03-25T03:14:47;4.40;99.90
52415;DHT22;38340;52.964;6.086;2024-03-25T03:17:13;4.40;99.90
52415;DHT22;38340;52.964;6.086;2024-03-25T03:19:39;4.40;99.90
52415;DHT22;38340;52.964;6.086;2024-03-25T03:22:05;4.40;99.90
52415;DHT22;38340;52.964;6.086;2024-03-25T03:24:30;4.40;99.90
52415;DHT22;38340;52.964;6.086;2024-03-25T03:26:56;4.40;99.90
52415;DHT22;38340;52.964;6.086;2024-03-25T03:29:22;4.40;99.90
52415;DHT22;38340;52.964;6.086;2024-03-25T03:31:47;4.40;99.90
52415;DHT22;38340;52.964;6.086;2024-03-25T03:34:13;4.40;99.90
52415;DHT22;38340;52.964;6.086;2024-03-25T03:36:39;4.40;99.90
52415;DHT22;38340;52.964;6.086;2024-03-25T03:39:06;4.30;99.90
52415;DHT22;38340;52.964;6.086;2024-03-25T03:41:34;4.30;99.90
52415;DHT22;38340;52.964;6.086;2024-03-25T03:43:59;4.40;99.90
52415;DHT22;38340;52.964;6.086;2024-03-25T03:46:25;4.40;99.90
52415;DHT22;38340;52.964;6.086;2024-03-25T03:48:51;4.40;99.90
52415;DHT22;38340;52.964;6.086;2024-03-25T03:51:16;4.40;99.90
52415;DHT22;38340;52.964;6.086;2024-03-25T03:53:42;4.40;99.90
52415;DHT22;38340;52.964;6.086;2024-03-25T03:56:08;4.40;99.90
52415;DHT22;38340;52.964;6.086;2024-03-25T03:58:34;4.50;99.90
52415;DHT22;38340;52.964;6.086;2024-03-25T04:01:00;4.50;99.90
52415;DHT22;38340;52.964;6.086;2024-03-25T04:03:26;4.50;99.90
52415;DHT22;38340;52.964;6.086;2024-03-25T04:05:52;4.50;99.90
52415;DHT22;38340;52.964;6.086;2024-03-25T04:08:17;4.50;99.90
52415;DHT22;38340;52.964;6.086;2024-03-25T04:10:44;4.40;99.90
52415;DHT22;38340;52.964;6.086;2024-03-25T04:13:10;4.40;99.90
52415;DHT22;38340;52.964;6.086;2024-03-25T04:15:40;4.40;99.90
52415;DHT22;38340;52.964;6.086;2024-03-25T04:18:07;4.30;99.90
52415;DHT22;38340;52.964;6.086;2024-03-25T04:20:40;4.30;99.90
52415;DHT22;38340;52.964;6.086;2024-03-25T04:23:06;4.30;99.90
52415;DHT22;38340;52.964;6.086;2024-03-25T04:25:35;4.20;99.90
52415;DHT22;38340;52.964;6.086;2024-03-25T04:28:05;4.10;99.90
52415;DHT22;38340;52.964;6.086;2024-03-25T04:30:31;4.00;99.90
52415;DHT22;38340;52.964;6.086;2024-03-25T04:32:58;4.00;99.90
52415;DHT22;38340;52.964;6.086;2024-03-25T04:35:23;3.90;99.90
52415;DHT22;38340;52.964;6.086;2024-03-25T04:37:49;3.80;99.90
52415;DHT22;38340;52.964;6.086;2024-03-25T04:40:15;3.80;99.90
52415;DHT22;38340;52.964;6.086;2024-03-25T04:42:44;3.80;99.90
52415;DHT22;38340;52.964;6.086;2024-03-25T04:45:10;3.80;99.90
52415;DHT22;38340;52.964;6.086;2024-03-25T04:47:37;3.70;99.90
52415;DHT22;38340;52.964;6.086;2024-03-25T04:50:03;3.70;99.90
52415;DHT22;38340;52.964;6.086;2024-03-25T04:52:29;3.80;99.90
52415;DHT22;38340;52.964;6.086;2024-03-25T04:54:54;3.80;99.90
52415;DHT22;38340;52.964;6.086;2024-03-25T04:57:20;3.70;99.90
52415;DHT22;38340;52.964;6.086;2024-03-25T04:59:46;3.70;99.90
52415;DHT22;38340;52.964;6.086;2024-03-25T05:02:12;3.60;99.90
52415;DHT22;38340;52.964;6.086;2024-03-25T05:04:39;3.60;99.90
52415;DHT22;38340;52.964;6.086;2024-03-25T05:07:05;3.60;99.90
52415;DHT22;38340;52.964;6.086;2024-03-25T05:09:30;3.50;99.90
52415;DHT22;38340;52.964;6.086;2024-03-25T05:11:56;3.40;99.90
52415;DHT22;38340;52.964;6.086;2024-03-25T05:14:22;3.40;99.90
52415;DHT22;38340;52.964;6.086;2024-03-25T05:16:48;3.30;99.90
52415;DHT22;38340;52.964;6.086;2024-03-25T05:19:14;3.20;99.90
52415;DHT22;38340;52.964;6.086;2024-03-25T05:21:40;3.20;99.90
52415;DHT22;38340;52.964;6.086;2024-03-25T05:24:06;3.10;99.90
52415;DHT22;38340;52.964;6.086;2024-03-25T05:26:32;3.20;99.90
52415;DHT22;38340;52.964;6.086;2024-03-25T05:28:58;3.10;99.90
52415;DHT22;38340;52.964;6.086;2024-03-25T05:31:24;3.00;99.90
52415;DHT22;38340;52.964;6.086;2024-03-25T05:33:50;2.90;99.90
52415;DHT22;38340;52.964;6.086;2024-03-25T05:36:16;2.90;99.90
52415;DHT22;38340;52.964;6.086;2024-03-25T05:38:42;2.90;99.90
52415;DHT22;38340;52.964;6.086;2024-03-25T05:41:08;2.90;99.90
52415;DHT22;38340;52.964;6.086;2024-03-25T05:43:34;2.90;99.90
52415;DHT22;38340;52.964;6.086;2024-03-25T05:46:00;3.00;99.90
52415;DHT22;38340;52.964;6.086;2024-03-25T05:48:26;3.00;99.90
52415;DHT22;38340;52.964;6.086;2024-03-25T05:51:02;3.10;99.90
52415;DHT22;38340;52.964;6.086;2024-03-25T05:53:28;3.10;99.90
52415;DHT22;38340;52.964;6.086;2024-03-25T05:55:54;3.10;99.90
52415;DHT22;38340;52.964;6.086;2024-03-25T05:58:20;3.10;99.90
52415;DHT22;38340;52.964;6.086;2024-03-25T06:00:49;3.20;99.90
52415;DHT22;38340;52.964;6.086;2024-03-25T06:03:16;3.20;99.90
52415;DHT22;38340;52.964;6.086;2024-03-25T06:05:42;3.10;99.90
52415;DHT22;38340;52.964;6.086;2024-03-25T06:08:08;3.20;99.90
52415;DHT22;38340;52.964;6.086;2024-03-25T06:10:43;3.20;99.90
52415;DHT22;38340;52.964;6.086;2024-03-25T06:13:09;3.20;99.90
52415;DHT22;38340;52.964;6.086;2024-03-25T06:15:35;3.20;99.90
52415;DHT22;38340;52.964;6.086;2024-03-25T06:18:00;3.30;99.90
52415;DHT22;38340;52.964;6.086;2024-03-25T06:20:26;3.40;99.90
52415;DHT22;38340;52.964;6.086;2024-03-25T06:22:52;3.40;99.90
52415;DHT22;38340;52.964;6.086;2024-03-25T06:25:17;3.50;99.90
52415;DHT22;38340;52.964;6.086;2024-03-25T06:27:43;3.60;99.90
52415;DHT22;38340;52.964;6.086;2024-03-25T06:30:10;3.70;99.90
52415;DHT22;38340;52.964;6.086;2024-03-25T06:32:54;3.70;99.90
52415;DHT22;38340;52.964;6.086;2024-03-25T06:35:39;3.80;99.90
52415;DHT22;38340;52.964;6.086;2024-03-25T06:38:04;3.90;99.90
52415;DHT22;38340;52.964;6.086;2024-03-25T06:40:30;4.10;99.90
52415;DHT22;38340;52.964;6.086;2024-03-25T06:42:56;4.20;99.90
52415;DHT22;38340;52.964;6.086;2024-03-25T06:45:22;4.40;99.90
52415;DHT22;38340;52.964;6.086;2024-03-25T06:47:48;4.60;99.90
52415;DHT22;38340;52.964;6.086;2024-03-25T06:50:14;4.70;99.90
52415;DHT22;38340;52.964;6.086;2024-03-25T06:52:40;4.70;99.90
52415;DHT22;38340;52.964;6.086;2024-03-25T06:55:07;4.80;99.90
52415;DHT22;38340;52.964;6.086;2024-03-25T06:57:33;4.80;99.90
52415;DHT22;38340;52.964;6.086;2024-03-25T06:59:59;5.00;99.90
52415;DHT22;38340;52.964;6.086;2024-03-25T07:02:25;5.00;99.90
52415;DHT22;38340;52.964;6.086;2024-03-25T07:04:50;5.10;99.90
52415;DHT22;38340;52.964;6.086;2024-03-25T07:07:16;5.20;99.90
52415;DHT22;38340;52.964;6.086;2024-03-25T07:09:42;5.30;99.90
52415;DHT22;38340;52.964;6.086;2024-03-25T07:12:07;5.40;99.90
52415;DHT22;38340;52.964;6.086;2024-03-25T07:14:33;5.60;99.90
52415;DHT22;38340;52.964;6.086;2024-03-25T07:16:59;5.70;99.90
52415;DHT22;38340;52.964;6.086;2024-03-25T07:19:25;5.80;99.90
52415;DHT22;38340;52.964;6.086;2024-03-25T07:21:51;5.90;99.90
52415;DHT22;38340;52.964;6.086;2024-03-25T07:24:16;5.90;99.90
52415;DHT22;38340;52.964;6.086;2024-03-25T07:26:42;5.90;99.90
52415;DHT22;38340;52.964;6.086;2024-03-25T07:29:08;5.80;99.90
52415;DHT22;38340;52.964;6.086;2024-03-25T07:31:34;5.80;99.90
52415;DHT22;38340;52.964;6.086;2024-03-25T07:33:59;5.80;99.90
52415;DHT22;38340;52.964;6.086;2024-03-25T07:36:25;5.90;99.90
52415;DHT22;38340;52.964;6.086;2024-03-25T07:38:50;6.00;99.90
52415;DHT22;38340;52.964;6.086;2024-03-25T07:41:16;6.10;99.90
52415;DHT22;38340;52.964;6.086;2024-03-25T07:43:42;6.30;99.90
52415;DHT22;38340;52.964;6.086;2024-03-25T07:46:07;6.40;99.90
52415;DHT22;38340;52.964;6.086;2024-03-25T07:48:33;6.50;99.90
52415;DHT22;38340;52.964;6.086;2024-03-25T07:51:01;6.50;99.90
52415;DHT22;38340;52.964;6.086;2024-03-25T07:53:26;6.70;99.90
52415;DHT22;38340;52.964;6.086;2024-03-25T07:55:52;6.90;99.90
52415;DHT22;38340;52.964;6.086;2024-03-25T07:58:18;6.90;99.90
52415;DHT22;38340;52.964;6.086;2024-03-25T08:00:43;6.90;99.90
52415;DHT22;38340;52.964;6.086;2024-03-25T08:03:09;6.90;99.90
52415;DHT22;38340;52.964;6.086;2024-03-25T08:05:36;7.00;99.90
52415;DHT22;38340;52.964;6.086;2024-03-25T08:08:01;7.10;99.90
52415;DHT22;38340;52.964;6.086;2024-03-25T08:10:27;7.30;99.90
52415;DHT22;38340;52.964;6.086;2024-03-25T08:12:54;7.40;99.90
52415;DHT22;38340;52.964;6.086;2024-03-25T08:15:19;7.60;99.90
52415;DHT22;38340;52.964;6.086;2024-03-25T08:17:45;7.80;99.90
52415;DHT22;38340;52.964;6.086;2024-03-25T08:20:11;7.90;99.90
52415;DHT22;38340;52.964;6.086;2024-03-25T08:22:38;7.90;99.90
52415;DHT22;38340;52.964;6.086;2024-03-25T08:25:04;7.70;99.90
52415;DHT22;38340;52.964;6.086;2024-03-25T08:27:30;7.70;99.90
52415;DHT22;38340;52.964;6.086;2024-03-25T08:29:55;7.60;99.90
52415;DHT22;38340;52.964;6.086;2024-03-25T08:32:21;7.60;99.90
52415;DHT22;38340;52.964;6.086;2024-03-25T08:34:47;7.70;99.90
52415;DHT22;38340;52.964;6.086;2024-03-25T08:37:12;7.80;99.90
52415;DHT22;38340;52.964;6.086;2024-03-25T08:39:38;7.90;99.90
52415;DHT22;38340;52.964;6.086;2024-03-25T08:42:04;7.90;99.90
52415;DHT22;38340;52.964;6.086;2024-03-25T08:44:29;7.80;99.90
52415;DHT22;38340;52.964;6.086;2024-03-25T08:46:55;7.80;99.90
52415;DHT22;38340;52.964;6.086;2024-03-25T08:49:21;7.80;99.90
52415;DHT22;38340;52.964;6.086;2024-03-25T08:51:47;7.70;99.90
52415;DHT22;38340;52.964;6.086;2024-03-25T08:54:12;7.70;99.90
52415;DHT22;38340;52.964;6.086;2024-03-25T08:56:38;7.70;99.90
52415;DHT22;38340;52.964;6.086;2024-03-25T08:59:04;7.70;99.90
52415;DHT22;38340;52.964;6.086;2024-03-25T09:01:29;7.70;99.90
52415;DHT22;38340;52.964;6.086;2024-03-25T09:03:56;7.80;99.90
52415;DHT22;38340;52.964;6.086;2024-03-25T09:06:22;7.90;99.90
52415;DHT22;38340;52.964;6.086;2024-03-25T09:08:47;8.10;99.90
52415;DHT22;38340;52.964;6.086;2024-03-25T09:11:31;8.10;99.90
52415;DHT22;38340;52.964;6.086;2024-03-25T09:13:57;8.20;99.90
52415;DHT22;38340;52.964;6.086;2024-03-25T09:16:23;8.20;99.90
52415;DHT22;38340;52.964;6.086;2024-03-25T09:18:49;8.20;99.90
52415;DHT22;38340;52.964;6.086;2024-03-25T09:21:14;8.20;99.90
52415;DHT22;38340;52.964;6.086;2024-03-25T09:23:40;8.30;99.90
52415;DHT22;38340;52.964;6.086;2024-03-25T09:26:06;8.30;99.90
52415;DHT22;38340;52.964;6.086;2024-03-25T09:28:31;8.30;99.90
52415;DHT22;38340;52.964;6.086;2024-03-25T09:30:57;8.40;99.90
52415;DHT22;38340;52.964;6.086;2024-03-25T09:33:23;8.50;99.90
52415;DHT22;38340;52.964;6.086;2024-03-25T09:35:49;8.60;99.90
52415;DHT22;38340;52.964;6.086;2024-03-25T09:38:15;8.80;99.90
52415;DHT22;38340;52.964;6.086;2024-03-25T09:40:41;9.10;99.90
52415;DHT22;38340;52.964;6.086;2024-03-25T09:43:13;9.30;99.90
52415;DHT22;38340;52.964;6.086;2024-03-25T09:45:44;9.60;99.90
52415;DHT22;38340;52.964;6.086;2024-03-25T09:48:16;9.70;99.90
52415;DHT22;38340;52.964;6.086;2024-03-25T09:50:43;9.70;99.90
52415;DHT22;38340;52.964;6.086;2024-03-25T09:53:09;9.70;99.90
52415;DHT22;38340;52.964;6.086;2024-03-25T09:55:35;10.00;99.90
52415;DHT22;38340;52.964;6.086;2024-03-25T09:58:02;10.10;99.90
52415;DHT22;38340;52.964;6.086;2024-03-25T10:00:28;9.90;99.90
52415;DHT22;38340;52.964;6.086;2024-03-25T10:02:54;9.60;99.90
52415;DHT22;38340;52.964;6.086;2024-03-25T10:05:20;9.30;99.90
52415;DHT22;38340;52.964;6.086;2024-03-25T10:07:46;9.30;99.90
52415;DHT22;38340;52.964;6.086;2024-03-25T10:10:11;9.00;99.90
52415;DHT22;38340;52.964;6.086;2024-03-25T10:12:37;8.80;99.90
52415;DHT22;38340;52.964;6.086;2024-03-25T10:15:04;8.90;99.90
52415;DHT22;38340;52.964;6.086;2024-03-25T10:17:31;8.80;99.90
52415;DHT22;38340;52.964;6.086;2024-03-25T10:19:57;8.80;99.90
52415;DHT22;38340;52.964;6.086;2024-03-25T10:22:22;8.80;99.90
52415;DHT22;38340;52.964;6.086;2024-03-25T10:24:49;8.80;99.90
52415;DHT22;38340;52.964;6.086;2024-03-25T10:27:19;8.80;99.90
52415;DHT22;38340;52.964;6.086;2024-03-25T10:29:46;8.90;99.90
52415;DHT22;38340;52.964;6.086;2024-03-25T10:32:13;8.90;99.90
52415;DHT22;38340;52.964;6.086;2024-03-25T10:34:39;8.80;99.90
52415;DHT22;38340;52.964;6.086;2024-03-25T10:37:07;8.90;99.90
52415;DHT22;38340;52.964;6.086;2024-03-25T10:39:43;8.90;99.90
52415;DHT22;38340;52.964;6.086;2024-03-25T10:42:14;8.90;99.90
52415;DHT22;38340;52.964;6.086;2024-03-25T10:44:40;8.80;99.90
52415;DHT22;38340;52.964;6.086;2024-03-25T10:47:07;8.80;99.90
52415;DHT22;38340;52.964;6.086;2024-03-25T10:49:50;8.80;99.90
52415;DHT22;38340;52.964;6.086;2024-03-25T10:52:18;8.70;99.90
52415;DHT22;38340;52.964;6.086;2024-03-25T10:54:47;8.80;99.90
52415;DHT22;38340;52.964;6.086;2024-03-25T10:57:13;9.00;99.90
52415;DHT22;38340;52.964;6.086;2024-03-25T10:59:41;9.30;99.90
52415;DHT22;38340;52.964;6.086;2024-03-25T11:02:09;9.50;99.90
52415;DHT22;38340;52.964;6.086;2024-03-25T11:04:35;9.70;99.90
52415;DHT22;38340;52.964;6.086;2024-03-25T11:07:14;9.70;99.90
52415;DHT22;38340;52.964;6.086;2024-03-25T11:09:40;9.80;99.90
52415;DHT22;38340;52.964;6.086;2024-03-25T11:12:10;9.90;99.90
52415;DHT22;38340;52.964;6.086;2024-03-25T11:14:36;9.90;99.90
52415;DHT22;38340;52.964;6.086;2024-03-25T11:17:02;10.00;99.90
52415;DHT22;38340;52.964;6.086;2024-03-25T11:19:29;10.00;99.90
52415;DHT22;38340;52.964;6.086;2024-03-25T11:22:07;9.80;99.90
52415;DHT22;38340;52.964;6.086;2024-03-25T11:24:34;9.90;99.90
52415;DHT22;38340;52.964;6.086;2024-03-25T11:27:07;10.00;99.90
52415;DHT22;38340;52.964;6.086;2024-03-25T11:29:33;10.10;99.90
52415;DHT22;38340;52.964;6.086;2024-03-25T11:32:03;10.20;99.90
52415;DHT22;38340;52.964;6.086;2024-03-25T11:34:29;9.90;99.90
52415;DHT22;38340;52.964;6.086;2024-03-25T11:36:55;9.70;99.90
52415;DHT22;38340;52.964;6.086;2024-03-25T11:39:23;9.80;99.90
52415;DHT22;38340;52.964;6.086;2024-03-25T11:41:49;9.80;99.90
52415;DHT22;38340;52.964;6.086;2024-03-25T11:44:16;9.90;99.90
52415;DHT22;38340;52.964;6.086;2024-03-25T11:46:43;10.00;99.90
52415;DHT22;38340;52.964;6.086;2024-03-25T11:49:14;10.30;99.90
52415;DHT22;38340;52.964;6.086;2024-03-25T11:51:40;10.30;99.90
52415;DHT22;38340;52.964;6.086;2024-03-25T11:54:13;10.60;99.90
52415;DHT22;38340;52.964;6.086;2024-03-25T11:56:39;10.30;99.90
52415;DHT22;38340;52.964;6.086;2024-03-25T11:59:05;10.20;99.90
52415;DHT22;38340;52.964;6.086;2024-03-25T12:01:32;10.30;99.90
52415;DHT22;38340;52.964;6.086;2024-03-25T12:04:08;10.60;99.90
52415;DHT22;38340;52.964;6.086;2024-03-25T12:06:33;10.80;99.90
52415;DHT22;38340;52.964;6.086;2024-03-25T12:08:59;11.10;99.90
52415;DHT22;38340;52.964;6.086;2024-03-25T12:11:43;11.30;99.90
52415;DHT22;38340;52.964;6.086;2024-03-25T12:14:09;11.50;99.90
52415;DHT22;38340;52.964;6.086;2024-03-25T12:16:34;11.40;99.90
52415;DHT22;38340;52.964;6.086;2024-03-25T12:19:00;11.40;99.90
52415;DHT22;38340;52.964;6.086;2024-03-25T12:21:26;11.30;99.90
52415;DHT22;38340;52.964;6.086;2024-03-25T12:23:53;11.40;99.90
52415;DHT22;38340;52.964;6.086;2024-03-25T12:26:19;11.40;99.90
52415;DHT22;38340;52.964;6.086;2024-03-25T12:28:45;11.50;99.90
52415;DHT22;38340;52.964;6.086;2024-03-25T12:31:11;11.50;99.90
52415;DHT22;38340;52.964;6.086;2024-03-25T12:33:42;11.60;99.90
52415;DHT22;38340;52.964;6.086;2024-03-25T12:36:09;11.50;99.90
52415;DHT22;38340;52.964;6.086;2024-03-25T12:38:36;11.60;99.90
52415;DHT22;38340;52.964;6.086;2024-03-25T12:41:12;11.50;99.90
52415;DHT22;38340;52.964;6.086;2024-03-25T12:43:44;11.70;99.90
52415;DHT22;38340;52.964;6.086;2024-03-25T12:46:11;11.60;99.90
52415;DHT22;38340;52.964;6.086;2024-03-25T12:48:37;11.80;99.90
52415;DHT22;38340;52.964;6.086;2024-03-25T12:51:04;11.80;99.90
52415;DHT22;38340;52.964;6.086;2024-03-25T12:53:30;11.70;99.90
52415;DHT22;38340;52.964;6.086;2024-03-25T12:55:56;11.90;99.90
52415;DHT22;38340;52.964;6.086;2024-03-25T12:58:21;12.10;99.90
52415;DHT22;38340;52.964;6.086;2024-03-25T13:00:47;12.10;99.90
52415;DHT22;38340;52.964;6.086;2024-03-25T13:03:13;12.20;99.90
52415;DHT22;38340;52.964;6.086;2024-03-25T13:05:40;12.10;99.90
52415;DHT22;38340;52.964;6.086;2024-03-25T13:08:06;11.70;99.90
52415;DHT22;38340;52.964;6.086;2024-03-25T13:10:31;11.60;99.90
52415;DHT22;38340;52.964;6.086;2024-03-25T13:12:59;11.70;99.90
52415;DHT22;38340;52.964;6.086;2024-03-25T13:15:26;11.70;99.90
52415;DHT22;38340;52.964;6.086;2024-03-25T13:17:52;11.90;99.90
52415;DHT22;38340;52.964;6.086;2024-03-25T13:20:17;12.10;99.90
52415;DHT22;38340;52.964;6.086;2024-03-25T13:22:44;12.20;99.90
52415;DHT22;38340;52.964;6.086;2024-03-25T13:25:11;12.20;99.90
52415;DHT22;38340;52.964;6.086;2024-03-25T13:27:37;12.10;99.90
52415;DHT22;38340;52.964;6.086;2024-03-25T13:30:05;12.30;99.90
52415;DHT22;38340;52.964;6.086;2024-03-25T13:32:30;12.50;99.90
52415;DHT22;38340;52.964;6.086;2024-03-25T13:34:56;12.50;99.90
52415;DHT22;38340;52.964;6.086;2024-03-25T13:37:22;12.60;99.90
52415;DHT22;38340;52.964;6.086;2024-03-25T13:39:47;12.70;99.90
52415;DHT22;38340;52.964;6.086;2024-03-25T13:42:15;12.40;99.90
52415;DHT22;38340;52.964;6.086;2024-03-25T13:44:41;12.60;99.90
52415;DHT22;38340;52.964;6.086;2024-03-25T13:47:06;12.80;99.90
52415;DHT22;38340;52.964;6.086;2024-03-25T13:49:34;12.80;99.90
52415;DHT22;38340;52.964;6.086;2024-03-25T13:51:59;12.50;99.90
52415;DHT22;38340;52.964;6.086;2024-03-25T13:54:28;12.40;99.90
52415;DHT22;38340;52.964;6.086;2024-03-25T13:56:55;12.50;99.90
52415;DHT22;38340;52.964;6.086;2024-03-25T13:59:21;12.60;99.90
52415;DHT22;38340;52.964;6.086;2024-03-25T14:01:46;12.30;99.90
52415;DHT22;38340;52.964;6.086;2024-03-25T14:04:12;12.40;99.90
52415;DHT22;38340;52.964;6.086;2024-03-25T14:06:38;12.50;99.90
52415;DHT22;38340;52.964;6.086;2024-03-25T14:09:05;12.50;99.90
52415;DHT22;38340;52.964;6.086;2024-03-25T14:11:31;12.50;99.90
52415;DHT22;38340;52.964;6.086;2024-03-25T14:13:57;12.20;99.90
52415;DHT22;38340;52.964;6.086;2024-03-25T14:16:22;12.00;99.90
52415;DHT22;38340;52.964;6.086;2024-03-25T14:18:48;12.10;99.90
52415;DHT22;38340;52.964;6.086;2024-03-25T14:21:14;11.90;99.90
52415;DHT22;38340;52.964;6.086;2024-03-25T14:23:39;11.80;99.90
52415;DHT22;38340;52.964;6.086;2024-03-25T14:26:14;11.90;99.90
52415;DHT22;38340;52.964;6.086;2024-03-25T14:28:43;11.90;99.90
52415;DHT22;38340;52.964;6.086;2024-03-25T14:31:08;11.90;99.90
52415;DHT22;38340;52.964;6.086;2024-03-25T14:33:34;11.80;99.90
52415;DHT22;38340;52.964;6.086;2024-03-25T14:36:00;11.90;99.90
52415;DHT22;38340;52.964;6.086;2024-03-25T14:38:25;12.10;99.90
52415;DHT22;38340;52.964;6.086;2024-03-25T14:40:51;11.80;99.90
52415;DHT22;38340;52.964;6.086;2024-03-25T14:43:18;11.70;99.90
52415;DHT22;38340;52.964;6.086;2024-03-25T14:45:47;11.70;99.90
52415;DHT22;38340;52.964;6.086;2024-03-25T14:48:13;11.60;99.90
52415;DHT22;38340;52.964;6.086;2024-03-25T14:50:39;11.50;91.90
52415;DHT22;38340;52.964;6.086;2024-03-25T14:53:04;11.30;97.00
52415;DHT22;38340;52.964;6.086;2024-03-25T14:55:31;11.30;99.90
52415;DHT22;38340;52.964;6.086;2024-03-25T14:57:57;11.30;99.90
52415;DHT22;38340;52.964;6.086;2024-03-25T15:00:23;11.30;94.70
52415;DHT22;38340;52.964;6.086;2024-03-25T15:02:51;11.50;99.90
52415;DHT22;38340;52.964;6.086;2024-03-25T15:05:17;11.70;99.90
52415;DHT22;38340;52.964;6.086;2024-03-25T15:07:46;11.70;99.90
52415;DHT22;38340;52.964;6.086;2024-03-25T15:10:12;11.80;99.90
52415;DHT22;38340;52.964;6.086;2024-03-25T15:12:38;11.80;99.90
52415;DHT22;38340;52.964;6.086;2024-03-25T15:15:05;11.80;99.90
52415;DHT22;38340;52.964;6.086;2024-03-25T15:17:33;11.70;99.90
52415;DHT22;38340;52.964;6.086;2024-03-25T15:19:59;11.70;99.90
52415;DHT22;38340;52.964;6.086;2024-03-25T15:22:25;11.70;99.90
52415;DHT22;38340;52.964;6.086;2024-03-25T15:24:50;11.70;99.90
52415;DHT22;38340;52.964;6.086;2024-03-25T15:27:16;11.80;99.90
52415;DHT22;38340;52.964;6.086;2024-03-25T15:29:42;11.90;99.90
52415;DHT22;38340;52.964;6.086;2024-03-25T15:32:07;12.00;99.90
52415;DHT22;38340;52.964;6.086;2024-03-25T15:34:33;11.90;99.90
52415;DHT22;38340;52.964;6.086;2024-03-25T15:36:59;11.90;99.90